Terminal Aerodrome Forecast
Issued by NWS

Home | Current Version | Previous Version | Graphics & Text | Print | Product List | Glossary On
Versions: 1 2 3 4 5 6 7 8 9 10 11 12 13
000
FTUS43 KABR 241124
TAFMBG
TAF
KMBG 241124Z 2412/2512 14008KT P6SM BKN150
     FM241600 19011KT P6SM FEW250
     FM242100 24013KT P6SM FEW200
     FM250200 27006KT P6SM FEW250=

USA.gov is the U.S. government's official web portal to all federal, state and local government web resources and services.